Time;durP1;ratioP1;P1;durP2;ratioP2;P2;SDS_P1;SDS_P2;PMS_P1;PMS_P2;Temp;Humidity;BMP_temperature;BMP_pressure;BME280_temperature;BME280_humidity;BME280_pressure;Samples;Min_cycle;Max_cycle;Signal;HPM_P1;HPM_P2
2022/01/06 00:01:55;;;;;;;6.88;2.92;;;;;;;5.27;93.44;99689.25;4833242;29;20037;-77
2022/01/06 00:04:21;;;;;;;5.63;2.97;;;;;;;5.23;93.45;99685.97;4849165;29;20041;-77
2022/01/06 00:06:47;;;;;;;6.30;2.97;;;;;;;5.26;93.67;99691.06;4848668;29;20053;-77
2022/01/06 00:09:15;;;;;;;10.10;3.00;;;;;;;5.19;93.42;99689.78;4849320;29;20050;-77
2022/01/06 00:11:42;;;;;;;7.35;3.08;;;;;;;5.17;93.58;99691.69;4846960;29;20038;-76
2022/01/06 00:14:21;;;;;;;7.43;3.00;;;;;;;5.10;93.77;99701.03;4848841;29;20046;-77
2022/01/06 00:17:03;;;;;;;6.30;2.90;;;;;;;5.06;93.81;99703.06;4848763;29;20038;-77
2022/01/06 00:24:57;;;;;;;5.97;3.10;;;;;;;5.06;94.20;99703.06;4847992;29;20041;-76
2022/01/06 00:27:22;;;;;;;5.32;2.13;;;;;;;5.09;94.14;99706.44;4847455;29;20046;-76
2022/01/06 00:29:48;;;;;;;5.93;2.22;;;;;;;5.13;93.90;99705.28;4848831;29;20102;-78
2022/01/06 00:32:13;;;;;;;5.82;2.10;;;;;;;5.07;93.92;99711.84;4847630;29;20041;-76
2022/01/06 00:34:38;;;;;;;6.82;1.90;;;;;;;5.05;93.55;99717.25;4847730;29;20037;-77
2022/01/06 00:37:04;;;;;;;6.90;2.00;;;;;;;4.96;93.74;99723.22;4833366;29;20048;-79
2022/01/06 00:39:30;;;;;;;5.07;1.70;;;;;;;4.96;94.08;99717.91;4832366;29;20046;-76
2022/01/06 00:41:57;;;;;;;6.05;1.73;;;;;;;4.98;94.11;99717.81;4847505;29;20042;-77
2022/01/06 00:44:23;;;;;;;6.43;1.80;;;;;;;4.94;94.21;99719.84;4847300;29;20057;-77
2022/01/06 00:46:49;;;;;;;5.93;2.03;;;;;;;4.93;93.52;99723.44;4847660;29;20029;-76
2022/01/06 00:49:17;;;;;;;6.82;1.52;;;;;;;4.94;94.00;99732.22;4832031;29;20037;-77
2022/01/06 00:51:42;;;;;;;5.55;1.60;;;;;;;4.90;93.91;99731.59;4848006;29;20095;-78
2022/01/06 00:54:08;;;;;;;4.93;1.60;;;;;;;4.86;93.41;99729.28;4831432;29;20076;-76
2022/01/06 00:56:33;;;;;;;6.55;1.40;;;;;;;4.81;93.73;99736.69;4847758;29;20080;-78
2022/01/06 00:58:58;;;;;;;5.50;1.80;;;;;;;4.82;93.11;99741.03;4847560;29;20405;-77
2022/01/06 01:01:23;;;;;;;8.05;1.48;;;;;;;4.85;93.49;99730.22;4846641;29;20042;-76
2022/01/06 01:03:49;;;;;;;4.00;1.20;;;;;;;4.84;93.27;99737.34;4846997;29;20086;-77
2022/01/06 01:06:15;;;;;;;7.72;1.55;;;;;;;4.87;93.18;99742.41;4847325;29;20049;-77
2022/01/06 01:08:40;;;;;;;5.85;1.50;;;;;;;4.88;93.04;99736.16;4847552;29;20049;-77
2022/01/06 01:11:06;;;;;;;5.60;1.55;;;;;;;4.88;93.24;99743.25;4848094;29;20073;-77
2022/01/06 01:13:36;;;;;;;3.28;1.10;;;;;;;4.87;92.98;99754.81;4846968;29;20057;-77
2022/01/06 01:16:10;;;;;;;6.43;1.88;;;;;;;4.86;93.24;99748.66;4848143;29;20126;-76
2022/01/06 01:18:36;;;;;;;5.13;1.48;;;;;;;4.85;92.85;99749.63;4831674;29;20045;-77
2022/01/06 01:21:01;;;;;;;3.38;1.10;;;;;;;4.87;93.15;99757.47;4847437;29;20361;-77
2022/01/06 01:23:26;;;;;;;5.15;1.60;;;;;;;4.65;92.79;99752.78;4848069;29;20072;-76
2022/01/06 01:25:52;;;;;;;7.50;1.38;;;;;;;4.73;92.30;99758.44;4847570;29;20042;-78
2022/01/06 01:28:18;;;;;;;4.30;1.52;;;;;;;4.72;92.23;99760.19;4847378;29;20030;-77
2022/01/06 01:31:02;;;;;;;7.38;1.85;;;;;;;4.74;92.44;99763.63;4847707;29;20106;-76
2022/01/06 01:33:30;;;;;;;5.28;1.42;;;;;;;4.79;92.23;99763.28;4831617;29;20820;-75
2022/01/06 01:35:56;;;;;;;7.38;1.40;;;;;;;4.84;92.62;99760.31;4832566;29;20046;-78
2022/01/06 01:38:21;;;;;;;3.97;1.38;;;;;;;4.85;92.80;99768.16;4846971;29;20058;-77
2022/01/06 01:40:46;;;;;;;5.60;1.33;;;;;;;4.86;92.25;99769.00;4849196;29;20037;-77
2022/01/06 01:43:12;;;;;;;5.57;1.55;;;;;;;4.81;92.32;99765.84;4850953;29;20038;-76
2022/01/06 01:45:45;;;;;;;6.90;1.55;;;;;;;4.71;91.58;99768.25;4850637;29;20115;-77
2022/01/06 01:48:18;;;;;;;5.63;1.23;;;;;;;4.68;91.65;99771.09;4851329;29;20049;-76
2022/01/06 01:50:44;;;;;;;4.93;1.35;;;;;;;4.65;91.87;99780.13;4849627;29;20040;-76
2022/01/06 01:53:09;;;;;;;3.72;1.02;;;;;;;4.69;92.01;99781.59;4834334;29;20034;-77
2022/01/06 01:55:35;;;;;;;8.38;1.23;;;;;;;4.71;91.94;99786.78;4850572;29;20033;-77
2022/01/06 01:58:00;;;;;;;5.20;1.27;;;;;;;4.69;91.91;99781.59;4850302;29;20042;-76
2022/01/06 02:00:30;;;;;;;4.47;1.33;;;;;;;4.63;91.67;99789.13;4849485;29;20061;-76
2022/01/06 02:02:55;;;;;;;6.68;1.50;;;;;;;4.63;91.48;99791.75;4850331;29;20053;-77
2022/01/06 02:05:28;;;;;;;5.40;1.30;;;;;;;4.62;91.66;99793.56;4851000;29;20046;-76
2022/01/06 02:07:56;;;;;;;7.45;1.50;;;;;;;4.66;92.03;99791.56;4850444;29;20113;-76
2022/01/06 02:10:21;;;;;;;6.50;1.73;;;;;;;4.67;91.74;99787.94;4850638;29;20093;-76
2022/01/06 02:12:49;;;;;;;6.40;1.60;;;;;;;4.77;91.55;99790.84;4851047;29;20080;-76
2022/01/06 02:15:15;;;;;;;6.20;1.47;;;;;;;4.77;91.99;99790.84;4835711;29;20026;-77
2022/01/06 02:17:41;;;;;;;3.67;1.70;;;;;;;4.77;91.69;99797.00;4850310;29;20030;-76
2022/01/06 02:20:12;;;;;;;4.45;1.45;;;;;;;4.77;91.61;99790.84;4850866;29;20041;-76
2022/01/06 02:22:38;;;;;;;4.57;1.55;;;;;;;4.74;91.43;99800.69;4833925;29;20038;-77
2022/01/06 02:25:11;;;;;;;4.47;1.70;;;;;;;4.75;91.32;99806.84;4835304;29;20056;-77
2022/01/06 02:27:36;;;;;;;6.63;1.67;;;;;;;4.77;91.10;99798.78;4835314;29;20083;-77
2022/01/06 02:30:02;;;;;;;7.13;1.35;;;;;;;4.72;91.07;99797.28;4850537;29;20038;-78
2022/01/06 02:32:28;;;;;;;6.28;1.60;;;;;;;4.69;90.90;99796.63;4850500;29;20045;-77
2022/01/06 02:34:53;;;;;;;5.07;1.48;;;;;;;4.70;90.82;99799.19;4849769;29;20046;-76
2022/01/06 02:37:18;;;;;;;4.63;1.55;;;;;;;4.67;90.75;99801.19;4850194;29;20129;-78
2022/01/06 02:39:44;;;;;;;6.22;1.85;;;;;;;4.69;91.11;99796.63;4849498;29;20072;-77
2022/01/06 02:42:10;;;;;;;5.93;1.55;;;;;;;4.69;90.72;99796.63;4849590;29;20044;-76
2022/01/06 02:44:38;;;;;;;6.32;1.58;;;;;;;4.65;90.56;99796.00;4834632;29;20105;-76
2022/01/06 02:47:05;;;;;;;8.90;1.50;;;;;;;4.64;90.81;99810.19;4834942;29;20122;-76
2022/01/06 02:49:30;;;;;;;6.22;2.08;;;;;;;4.62;91.01;99801.50;4848857;29;20286;-77
2022/01/06 02:51:56;;;;;;;6.97;1.60;;;;;;;4.62;91.03;99801.50;4848728;29;20046;-77
2022/01/06 02:54:21;;;;;;;5.00;1.48;;;;;;;4.66;90.92;99797.69;4833273;29;20034;-77
2022/01/06 02:56:48;;;;;;;7.00;1.60;;;;;;;4.69;90.94;99801.94;4834653;29;20059;-77
2022/01/06 02:59:14;;;;;;;8.52;2.03;;;;;;;4.62;90.70;99803.31;4835188;29;20045;-78
2022/01/06 03:01:40;;;;;;;10.45;1.63;;;;;;;4.60;90.82;99807.84;4847751;29;20044;-78
2022/01/06 03:04:05;;;;;;;4.15;1.40;;;;;;;4.59;90.29;99803.50;4849637;29;20961;-76
2022/01/06 03:06:31;;;;;;;5.47;1.42;;;;;;;4.59;90.77;99807.00;4833445;29;20026;-77
2022/01/06 03:08:56;;;;;;;6.28;1.55;;;;;;;4.58;90.37;99815.06;4849787;29;20057;-78
2022/01/06 03:11:25;;;;;;;7.80;2.00;;;;;;;4.63;90.53;99811.16;4834564;29;20044;-77
2022/01/06 03:13:51;;;;;;;7.13;2.00;;;;;;;4.58;90.14;99818.56;4849628;29;20038;-77
2022/01/06 03:16:17;;;;;;;8.68;1.92;;;;;;;4.53;90.17;99820.66;4833879;29;20062;-78
2022/01/06 03:18:46;;;;;;;4.75;1.63;;;;;;;4.56;90.55;99819.63;4849329;29;20034;-78
2022/01/06 03:21:11;;;;;;;5.78;1.70;;;;;;;4.55;90.37;99823.22;4848791;29;20038;-76
2022/01/06 03:23:37;;;;;;;7.88;1.90;;;;;;;4.58;89.94;99828.31;4834168;29;20834;-77
2022/01/06 03:26:03;;;;;;;6.20;1.73;;;;;;;4.55;90.44;99828.50;4848093;29;20044;-77
2022/01/06 03:28:28;;;;;;;9.18;2.15;;;;;;;4.50;90.15;99823.53;4849136;29;20056;-77
2022/01/06 03:30:53;;;;;;;6.60;2.05;;;;;;;4.49;90.23;99827.13;4848693;29;20037;-77
2022/01/06 03:33:19;;;;;;;5.80;2.03;;;;;;;4.38;89.68;99830.50;4849152;29;20082;-77
2022/01/06 03:35:44;;;;;;;6.70;2.00;;;;;;;4.38;90.15;99837.59;4834336;29;20042;-77
2022/01/06 03:38:10;;;;;;;7.18;1.92;;;;;;;4.35;89.93;99838.63;4848293;29;20038;-77
2022/01/06 03:40:35;;;;;;;8.18;1.90;;;;;;;4.42;90.07;99831.97;4848095;29;20037;-77
2022/01/06 03:43:00;;;;;;;5.53;2.03;;;;;;;4.42;90.34;99837.28;4833960;29;20076;-76
2022/01/06 03:45:26;;;;;;;10.45;2.22;;;;;;;4.40;90.00;99843.63;4848689;29;20042;-77
2022/01/06 03:47:51;;;;;;;6.82;2.03;;;;;;;4.47;90.42;99854.66;4848301;29;20061;-77
2022/01/06 03:50:17;;;;;;;8.70;2.22;;;;;;;4.53;89.94;99854.25;4847638;29;20050;-77
2022/01/06 03:52:42;;;;;;;10.13;1.92;;;;;;;4.47;89.91;99850.19;4834199;29;20042;-77
2022/01/06 03:55:11;;;;;;;6.18;1.95;;;;;;;4.49;89.99;99850.94;4847831;29;20045;-78
2022/01/06 03:57:36;;;;;;;6.60;2.20;;;;;;;4.46;90.09;99856.44;4849106;29;20053;-76
2022/01/06 04:00:05;;;;;;;6.25;2.00;;;;;;;4.39;90.25;99858.66;4848538;29;20049;-76
2022/01/06 04:02:30;;;;;;;8.65;1.83;;;;;;;4.39;90.11;99860.47;4831422;29;20065;-76
2022/01/06 04:04:56;;;;;;;7.85;1.90;;;;;;;4.42;90.75;99857.59;4848410;29;20053;-77
2022/01/06 04:07:21;;;;;;;8.32;2.53;;;;;;;4.49;90.09;99858.03;4848560;29;20106;-75
2022/01/06 04:09:47;;;;;;;5.72;1.90;;;;;;;4.48;90.46;99862.50;4847840;29;20041;-76
2022/01/06 04:12:13;;;;;;;5.63;1.58;;;;;;;4.50;90.01;99873.81;4848831;29;20125;-78
2022/01/06 04:14:38;;;;;;;6.05;1.98;;;;;;;4.51;90.55;99870.22;4848713;29;20054;-77
2022/01/06 04:17:07;;;;;;;10.07;1.80;;;;;;;4.50;90.10;99862.38;4848798;29;20042;-78
2022/01/06 04:19:34;;;;;;;7.00;1.88;;;;;;;4.47;90.23;99865.25;4847939;29;20034;-77
2022/01/06 04:21:59;;;;;;;6.80;2.03;;;;;;;4.50;89.96;99876.47;4848137;29;20050;-76
2022/01/06 04:24:25;;;;;;;9.90;2.10;;;;;;;4.50;90.25;99881.78;4832822;29;20061;-78
2022/01/06 04:26:50;;;;;;;8.63;2.20;;;;;;;4.46;90.34;99882.06;4847833;29;20045;-77
2022/01/06 04:29:15;;;;;;;7.65;1.98;;;;;;;4.40;90.11;99886.81;4832783;29;20114;-77
2022/01/06 04:31:41;;;;;;;6.03;2.00;;;;;;;4.46;89.83;99880.28;4847032;29;20122;-77
2022/01/06 04:34:06;;;;;;;6.43;2.00;;;;;;;4.39;90.11;99882.47;4847826;29;20071;-76
2022/01/06 04:36:31;;;;;;;11.95;2.10;;;;;;;4.39;89.56;99881.63;4846895;29;20038;-76
2022/01/06 04:38:57;;;;;;;7.18;1.90;;;;;;;4.40;90.39;99885.97;4848381;29;20042;-77
2022/01/06 04:41:22;;;;;;;8.43;2.30;;;;;;;4.37;90.11;99883.53;4832351;29;20045;-79
2022/01/06 04:43:47;;;;;;;6.18;2.03;;;;;;;4.37;89.88;99886.19;4848630;29;20932;-77
2022/01/06 04:46:14;;;;;;;6.95;2.08;;;;;;;4.41;90.03;99893.81;4832697;29;20191;-78
2022/01/06 04:48:39;;;;;;;7.35;2.05;;;;;;;4.45;89.96;99893.63;4830060;29;20049;-76
2022/01/06 04:51:05;;;;;;;7.60;2.10;;;;;;;4.42;89.92;99897.31;4846812;29;20050;-77
2022/01/06 04:53:30;;;;;;;6.43;1.92;;;;;;;4.38;89.91;99890.53;4845698;29;20048;-77
2022/01/06 04:55:58;;;;;;;9.77;1.98;;;;;;;4.41;89.56;99893.81;4844400;29;20136;-77
2022/01/06 04:58:23;;;;;;;7.82;2.30;;;;;;;4.41;89.68;99893.81;4846703;29;20067;-78
2022/01/06 05:00:48;;;;;;;7.32;2.25;;;;;;;4.34;89.59;99903.13;4845169;29;20034;-78
2022/01/06 05:03:14;;;;;;;8.48;2.30;;;;;;;4.30;89.75;99906.91;4845019;29;20050;-77
2022/01/06 05:05:39;;;;;;;5.20;1.80;;;;;;;4.31;89.55;99907.75;4847613;29;20310;-76
2022/01/06 05:08:05;;;;;;;6.57;2.47;;;;;;;4.31;89.45;99921.84;4847688;29;20029;-77
2022/01/06 05:10:30;;;;;;;6.53;2.22;;;;;;;4.33;89.71;99922.59;4832061;29;20579;-77
2022/01/06 05:12:55;;;;;;;6.72;2.05;;;;;;;4.31;89.62;99929.78;4846796;29;20071;-77
2022/01/06 05:15:21;;;;;;;11.75;3.08;;;;;;;4.32;89.72;99928.84;4847656;29;20054;-76
2022/01/06 05:17:46;;;;;;;9.70;2.40;;;;;;;4.33;89.68;99924.38;4850895;29;20068;-78
2022/01/06 05:20:12;;;;;;;5.13;1.83;;;;;;;4.35;89.77;99925.13;4850767;29;20034;-76
2022/01/06 05:22:43;;;;;;;7.38;2.50;;;;;;;4.37;89.90;99924.09;4834462;29;20048;-77
2022/01/06 05:25:09;;;;;;;7.70;2.50;;;;;;;4.35;89.70;99925.13;4851313;29;20049;-77
2022/01/06 05:27:34;;;;;;;7.53;2.28;;;;;;;4.41;89.26;99920.28;4849737;29;20065;-78
2022/01/06 05:29:59;;;;;;;5.97;2.13;;;;;;;4.37;89.57;99917.94;4849961;29;20099;-77
2022/01/06 05:32:24;;;;;;;8.82;2.10;;;;;;;4.46;89.45;99927.94;4850733;29;20067;-77
2022/01/06 05:34:50;;;;;;;7.80;2.30;;;;;;;4.45;89.54;99928.03;4850486;29;20041;-78
2022/01/06 05:37:15;;;;;;;6.65;2.50;;;;;;;4.52;89.46;99930.19;4850125;29;20034;-77
2022/01/06 05:39:41;;;;;;;6.85;1.80;;;;;;;4.51;89.61;99939.06;4834560;29;20033;-76
2022/01/06 05:42:07;;;;;;;8.20;1.90;;;;;;;4.49;89.33;99932.19;4850677;29;20042;-75
2022/01/06 05:44:34;;;;;;;6.15;1.92;;;;;;;4.48;89.23;99931.31;4820299;29;20052;-77
2022/01/06 05:46:59;;;;;;;9.70;2.63;;;;;;;4.38;89.47;99927.59;4834969;29;20430;-76
2022/01/06 05:49:25;;;;;;;5.95;2.10;;;;;;;4.47;89.24;99934.06;4835912;29;20067;-76
2022/01/06 05:51:50;;;;;;;8.43;2.40;;;;;;;4.48;89.55;99949.00;4851101;29;20057;-77
2022/01/06 05:54:15;;;;;;;7.70;2.40;;;;;;;4.49;89.61;99946.25;4851191;29;20050;-77
2022/01/06 05:56:41;;;;;;;9.85;3.03;;;;;;;4.51;89.50;99939.06;4850165;29;20034;-77
2022/01/06 05:59:06;;;;;;;11.20;2.50;;;;;;;4.43;89.11;99946.66;4850797;29;20042;-76
2022/01/06 06:01:31;;;;;;;7.20;2.60;;;;;;;4.36;89.02;99953.31;4834210;29;20034;-77
2022/01/06 06:03:57;;;;;;;9.52;2.47;;;;;;;4.30;89.57;99959.00;4849460;29;20508;-77
2022/01/06 06:06:22;;;;;;;10.27;2.60;;;;;;;4.35;89.93;99963.03;4849755;29;20440;-76
2022/01/06 06:08:47;;;;;;;11.82;2.60;;;;;;;4.33;89.79;99961.44;4834539;29;20113;-76
2022/01/06 06:11:13;;;;;;;7.63;2.20;;;;;;;4.24;89.24;99968.16;4848650;29;20053;-76
2022/01/06 06:13:38;;;;;;;8.38;2.60;;;;;;;4.21;89.67;99963.06;4833444;29;20038;-78
2022/01/06 06:16:04;;;;;;;7.20;2.53;;;;;;;4.27;89.99;99962.69;4848883;29;20069;-77
2022/01/06 06:18:29;;;;;;;5.97;2.28;;;;;;;4.32;89.49;99965.03;4848293;29;20057;-77
2022/01/06 06:20:54;;;;;;;9.13;2.47;;;;;;;4.24;89.53;99973.44;4848326;29;20101;-76
2022/01/06 06:23:20;;;;;;;11.60;2.47;;;;;;;4.24;89.91;99970.78;4832437;29;20070;-76
2022/01/06 06:25:45;;;;;;;5.60;2.50;;;;;;;4.21;89.53;99976.28;4847242;29;20172;-78
2022/01/06 06:28:10;;;;;;;7.22;2.40;;;;;;;4.22;89.63;99977.13;4848507;29;20983;-77
2022/01/06 06:30:36;;;;;;;7.95;2.65;;;;;;;4.21;89.83;99978.06;4833381;29;20049;-77
2022/01/06 06:33:01;;;;;;;7.15;2.40;;;;;;;4.19;89.61;99982.63;4848457;29;20034;-76
2022/01/06 06:35:27;;;;;;;6.78;2.50;;;;;;;4.14;89.93;99980.25;4833724;29;20639;-76
2022/01/06 06:37:53;;;;;;;9.13;3.10;;;;;;;4.15;89.48;99978.47;4847980;29;20121;-77
2022/01/06 06:40:22;;;;;;;10.15;3.47;;;;;;;4.13;89.39;99978.56;4848167;29;20041;-77
2022/01/06 06:42:47;;;;;;;8.52;2.72;;;;;;;4.11;89.73;99986.59;4846906;29;20108;-78
2022/01/06 06:45:13;;;;;;;9.63;3.70;;;;;;;4.13;89.48;99985.66;4831409;29;20042;-76
2022/01/06 06:47:38;;;;;;;8.27;3.40;;;;;;;4.13;89.62;99996.25;4847268;29;20037;-77
2022/01/06 06:50:04;;;;;;;8.20;3.22;;;;;;;4.14;89.92;99992.66;4846849;29;20116;-78
2022/01/06 06:52:29;;;;;;;9.95;3.63;;;;;;;4.11;89.60;99993.69;4847991;29;20078;-76
2022/01/06 06:54:55;;;;;;;12.07;3.75;;;;;;;4.14;89.84;99996.13;4848311;29;20042;-76
2022/01/06 06:57:20;;;;;;;8.60;3.50;;;;;;;4.12;89.31;100000.69;4848790;29;20102;-77
2022/01/06 06:59:47;;;;;;;9.73;3.70;;;;;;;4.09;89.73;100008.81;4847358;29;20037;-77
2022/01/06 07:02:12;;;;;;;7.50;3.58;;;;;;;4.11;89.48;100010.41;4809980;29;1093279;-76
2022/01/06 07:04:37;;;;;;;15.35;4.13;;;;;;;4.08;89.57;100009.75;4848279;29;20034;-76
2022/01/06 07:07:03;;;;;;;8.93;3.60;;;;;;;4.12;89.62;100013.91;4845896;29;20038;-77
2022/01/06 07:09:28;;;;;;;9.95;3.63;;;;;;;4.07;89.23;100018.63;4848303;29;20046;-77
2022/01/06 07:11:53;;;;;;;9.90;3.50;;;;;;;4.15;89.62;100012.88;4833360;29;20037;-75
2022/01/06 07:14:19;;;;;;;8.70;3.83;;;;;;;4.07;89.65;100021.28;4848401;29;20073;-77
2022/01/06 07:16:44;;;;;;;9.73;3.80;;;;;;;4.10;89.70;100029.88;4849654;29;20793;-77
2022/01/06 07:19:09;;;;;;;9.05;3.50;;;;;;;4.17;89.21;100032.16;4849131;29;20069;-77
2022/01/06 07:21:35;;;;;;;9.32;3.90;;;;;;;4.11;89.36;100039.53;4849750;29;20045;-75
2022/01/06 07:24:00;;;;;;;15.30;3.97;;;;;;;4.13;89.49;100033.28;4849487;29;20046;-77
2022/01/06 07:26:25;;;;;;;12.82;3.72;;;;;;;4.16;89.29;100038.38;4847422;29;20041;-76
2022/01/06 07:28:51;;;;;;;11.98;4.43;;;;;;;4.10;89.01;100043.13;4847233;29;20042;-79
2022/01/06 07:31:16;;;;;;;7.63;3.78;;;;;;;4.07;88.72;100045.94;4849216;29;20029;-78
2022/01/06 07:34:04;;;;;;;11.38;4.38;;;;;;;4.09;89.24;100046.69;4832875;29;20742;-78
2022/01/06 07:36:30;;;;;;;8.88;4.00;;;;;;;4.11;89.08;100049.25;4849159;29;20045;-78
2022/01/06 07:38:55;;;;;;;11.85;4.22;;;;;;;4.06;89.34;100052.19;4831938;29;20046;-76
2022/01/06 07:41:20;;;;;;;10.07;4.03;;;;;;;4.05;89.14;100061.06;4847448;29;20038;-76
2022/01/06 07:43:46;;;;;;;12.18;3.80;;;;;;;4.10;89.49;100058.13;4849002;29;20132;-76
2022/01/06 07:46:12;;;;;;;11.70;4.43;;;;;;;4.14;89.81;100066.75;4833660;29;20044;-77
2022/01/06 07:48:48;;;;;;;7.90;4.63;;;;;;;4.14;89.67;100067.59;4848768;29;20038;-76
2022/01/06 07:51:15;;;;;;;11.10;4.15;;;;;;;4.20;89.41;100071.66;4848565;29;20046;-77
2022/01/06 07:53:40;;;;;;;9.23;4.32;;;;;;;4.22;89.54;100069.75;4849659;29;20057;-77
2022/01/06 07:56:05;;;;;;;9.27;4.45;;;;;;;4.23;89.14;100071.47;4848794;29;20050;-78
2022/01/06 07:58:31;;;;;;;7.97;3.75;;;;;;;4.26;89.42;100080.09;4849619;29;20042;-77
2022/01/06 08:00:56;;;;;;;12.75;4.53;;;;;;;4.23;89.49;100084.69;4847681;29;20060;-79
2022/01/06 08:03:25;;;;;;;9.80;4.80;;;;;;;4.24;89.18;100089.88;4847940;29;20060;-78
2022/01/06 08:05:50;;;;;;;12.88;4.45;;;;;;;4.24;89.78;100089.88;4848407;29;20567;-79
2022/01/06 08:08:15;;;;;;;11.00;4.85;;;;;;;4.24;89.78;100095.19;4849154;29;20114;-78
2022/01/06 08:10:40;;;;;;;9.57;4.55;;;;;;;4.25;89.71;100099.53;4833166;29;20073;-78
2022/01/06 08:13:06;;;;;;;13.48;4.47;;;;;;;4.25;89.23;100099.53;4833980;29;20037;-77
2022/01/06 08:15:31;;;;;;;10.75;3.97;;;;;;;4.23;89.58;100109.34;4847317;29;20034;-77
2022/01/06 08:17:57;;;;;;;10.95;4.00;;;;;;;4.27;89.69;100104.75;4847711;29;20064;-77
2022/01/06 08:20:22;;;;;;;11.15;3.90;;;;;;;4.26;89.64;100108.34;4832333;29;20038;-76
2022/01/06 08:22:47;;;;;;;11.68;4.30;;;;;;;4.27;89.56;100105.59;4847592;29;20042;-77
2022/01/06 08:25:12;;;;;;;12.10;4.00;;;;;;;4.28;89.61;100112.59;4848683;29;20125;-77
2022/01/06 08:27:38;;;;;;;8.60;3.78;;;;;;;4.25;89.73;100106.63;4847549;29;20065;-77
2022/01/06 08:30:05;;;;;;;11.32;4.32;;;;;;;4.27;89.44;100118.84;4847976;29;20528;-78
2022/01/06 08:32:30;;;;;;;11.70;3.90;;;;;;;4.25;89.73;100117.19;4847241;29;20033;-78
2022/01/06 08:34:55;;;;;;;15.00;4.32;;;;;;;4.30;90.33;100123.94;4847518;29;20138;-78
2022/01/06 08:37:21;;;;;;;11.70;4.10;;;;;;;4.32;90.26;100113.25;4849244;29;20049;-78
2022/01/06 08:39:46;;;;;;;14.45;4.20;;;;;;;4.35;90.17;100113.94;4832595;29;20061;-77
2022/01/06 08:42:12;;;;;;;10.70;4.10;;;;;;;4.33;90.23;100112.31;4832895;29;20061;-77
2022/01/06 08:44:39;;;;;;;10.18;4.30;;;;;;;4.28;89.96;100114.41;4847623;29;20042;-78
2022/01/06 08:47:05;;;;;;;9.43;4.00;;;;;;;4.28;90.03;100115.25;4848043;29;20038;-77
2022/01/06 08:49:31;;;;;;;8.57;4.13;;;;;;;4.31;90.09;100122.16;4847682;29;20042;-78
2022/01/06 08:51:56;;;;;;;10.68;4.25;;;;;;;4.33;90.28;100121.13;4847049;29;20052;-76
2022/01/06 08:54:22;;;;;;;12.57;3.92;;;;;;;4.32;90.38;100127.34;4846307;29;20101;-77
2022/01/06 08:56:47;;;;;;;8.35;4.20;;;;;;;4.36;90.58;100126.22;4847220;29;20110;-77
2022/01/06 08:59:12;;;;;;;9.57;4.45;;;;;;;4.37;90.33;100129.72;4848030;29;20041;-76
2022/01/06 09:01:37;;;;;;;10.75;3.92;;;;;;;4.40;90.44;100126.88;4846967;29;20038;-78
2022/01/06 09:04:03;;;;;;;10.98;3.97;;;;;;;4.40;90.28;100125.09;4832441;29;20046;-78
2022/01/06 09:06:29;;;;;;;10.10;3.60;;;;;;;4.39;90.72;100123.38;4847282;29;20041;-76
2022/01/06 09:08:54;;;;;;;12.77;4.55;;;;;;;4.39;90.67;100122.53;4847460;29;20058;-79
2022/01/06 09:11:19;;;;;;;9.30;4.03;;;;;;;4.53;91.01;100125.16;4847287;29;21082;-78
2022/01/06 09:13:45;;;;;;;11.60;4.30;;;;;;;4.51;90.35;100124.41;4846255;29;20102;-78
2022/01/06 09:16:10;;;;;;;12.95;4.20;;;;;;;4.50;90.51;100127.16;4847489;29;20060;-78
2022/01/06 09:18:37;;;;;;;8.30;4.13;;;;;;;4.58;90.68;100116.94;4847753;29;20057;-77
2022/01/06 09:21:03;;;;;;;8.13;3.97;;;;;;;4.54;90.45;100121.56;4846334;29;20038;-77
2022/01/06 09:23:28;;;;;;;11.35;3.88;;;;;;;4.60;90.91;100125.63;4846438;29;20033;-77
2022/01/06 09:25:54;;;;;;;11.30;4.10;;;;;;;4.51;90.83;100120.91;4846407;29;20046;-77
2022/01/06 09:28:19;;;;;;;9.20;3.88;;;;;;;4.47;90.44;100122.06;4846618;29;20045;-77
2022/01/06 09:30:44;;;;;;;12.15;4.43;;;;;;;4.47;90.85;100122.91;4848227;29;20525;-77
2022/01/06 09:33:10;;;;;;;11.88;4.35;;;;;;;4.44;90.85;100133.69;4832508;29;20050;-77
2022/01/06 09:35:36;;;;;;;7.25;3.88;;;;;;;4.45;90.79;100129.25;4845923;29;21062;-78
2022/01/06 09:38:03;;;;;;;12.93;4.22;;;;;;;4.45;90.78;100139.81;4847657;29;20480;-77
2022/01/06 09:40:29;;;;;;;13.75;4.70;;;;;;;4.43;90.74;100138.13;4848139;29;20049;-78
2022/01/06 09:42:55;;;;;;;12.27;4.63;;;;;;;4.48;90.64;100148.44;4847967;29;20046;-77
2022/01/06 09:45:24;;;;;;;12.60;4.30;;;;;;;4.55;91.01;100149.75;4815502;29;20042;-78
2022/01/06 09:47:49;;;;;;;8.80;4.72;;;;;;;4.47;90.90;100152.03;4847062;29;20045;-77
2022/01/06 09:50:15;;;;;;;9.40;4.70;;;;;;;4.53;90.90;100151.63;4832083;29;20030;-78
2022/01/06 09:52:40;;;;;;;11.25;4.18;;;;;;;4.53;91.10;100156.94;4847150;29;20044;-76
2022/01/06 09:55:06;;;;;;;9.90;4.60;;;;;;;4.53;90.89;100159.59;4832250;29;20026;-76
2022/01/06 09:57:32;;;;;;;11.05;4.28;;;;;;;4.56;90.96;100158.53;4846942;29;20046;-77
2022/01/06 09:59:57;;;;;;;8.65;4.22;;;;;;;4.55;90.89;100162.13;4845804;29;20609;-78
2022/01/06 10:02:32;;;;;;;12.02;4.90;;;;;;;4.45;91.27;100158.38;4850070;29;20119;-77
2022/01/06 10:04:59;;;;;;;10.57;4.60;;;;;;;4.52;91.14;100163.19;4850965;29;20030;-76
2022/01/06 10:07:24;;;;;;;11.93;4.60;;;;;;;4.63;90.82;100160.72;4849509;29;20034;-77
2022/01/06 10:09:50;;;;;;;13.48;4.85;;;;;;;4.54;91.36;100168.38;4848251;29;20105;-77
2022/01/06 10:12:16;;;;;;;11.70;4.53;;;;;;;4.53;91.13;100164.03;4849026;29;20084;-77
2022/01/06 10:14:46;;;;;;;10.90;4.53;;;;;;;4.55;91.24;100155.03;4832216;29;20033;-77
2022/01/06 10:17:14;;;;;;;9.65;4.60;;;;;;;4.56;90.85;100161.19;4831174;29;20026;-77
2022/01/06 10:19:42;;;;;;;9.85;4.50;;;;;;;4.60;90.97;100166.19;4833253;29;20042;-77
2022/01/06 10:22:17;;;;;;;8.90;4.32;;;;;;;4.68;91.51;100168.38;4832317;29;20037;-76
2022/01/06 10:24:44;;;;;;;11.50;5.63;;;;;;;4.61;90.89;100159.09;4832343;29;20037;-76
2022/01/06 10:27:11;;;;;;;15.65;5.45;;;;;;;4.59;91.60;100164.50;4848005;29;20560;-76
2022/01/06 10:29:46;;;;;;;10.25;5.47;;;;;;;4.58;90.98;100156.66;4833155;29;20045;-76
2022/01/06 10:32:17;;;;;;;14.90;5.70;;;;;;;4.56;90.78;100156.75;4848753;29;20032;-77
2022/01/06 10:34:48;;;;;;;15.45;5.05;;;;;;;4.66;90.73;100159.66;4832591;29;21192;-76
2022/01/06 10:37:22;;;;;;;14.73;5.57;;;;;;;4.62;91.41;100164.31;4849504;29;20110;-78
2022/01/06 10:39:49;;;;;;;13.00;5.50;;;;;;;4.68;91.16;100163.06;4847283;29;20395;-77
2022/01/06 10:42:15;;;;;;;13.82;6.13;;;;;;;4.73;91.12;100153.06;4833850;29;20097;-76
2022/01/06 10:44:48;;;;;;;13.48;5.90;;;;;;;4.80;91.37;100157.03;4848779;29;20054;-78
2022/01/06 10:47:13;;;;;;;16.08;6.28;;;;;;;4.83;91.70;100164.78;4830983;29;20136;-76
2022/01/06 10:49:38;;;;;;;13.68;6.38;;;;;;;4.80;91.61;100159.69;4848288;29;20069;-77
2022/01/06 10:52:04;;;;;;;11.70;6.03;;;;;;;4.84;91.23;100161.19;4849601;29;20049;-77
2022/01/06 10:54:29;;;;;;;21.05;7.30;;;;;;;4.84;91.53;100160.34;4833068;29;20107;-78
2022/01/06 10:57:05;;;;;;;11.73;6.82;;;;;;;4.88;91.30;100161.84;4849505;29;20040;-76
2022/01/06 10:59:33;;;;;;;13.70;6.65;;;;;;;4.90;91.36;100160.81;4847791;29;20038;-76
2022/01/06 11:01:59;;;;;;;13.57;7.30;;;;;;;4.86;91.49;100153.16;4833719;29;20078;-77
2022/01/06 11:04:25;;;;;;;15.45;7.45;;;;;;;4.87;91.59;100162.78;4849345;29;20123;-78
2022/01/06 11:06:51;;;;;;;14.85;8.02;;;;;;;4.77;91.81;100157.22;4850032;29;20061;-76
2022/01/06 11:09:17;;;;;;;16.08;8.00;;;;;;;4.78;91.56;100156.28;4834396;29;20045;-78
2022/01/06 11:12:26;;;;;;;13.02;7.25;;;;;;;4.80;91.65;100158.84;4833558;29;20061;-77
2022/01/06 11:14:28;;;;;;;15.38;7.80;;;;;;;4.76;91.33;100152.88;4849432;29;21186;-78
2022/01/06 11:16:54;;;;;;;15.95;7.63;;;;;;;4.72;91.39;100154.84;4850868;29;20101;-76
2022/01/06 11:19:22;;;;;;;14.15;7.90;;;;;;;4.69;91.54;100154.19;4849865;29;20057;-78
2022/01/06 11:21:48;;;;;;;18.30;8.07;;;;;;;4.69;91.31;100156.84;4848700;29;20038;-78
2022/01/06 11:24:20;;;;;;;18.17;8.18;;;;;;;4.70;91.13;100150.59;4833214;29;20057;-77
2022/01/06 11:27:10;;;;;;;19.70;8.15;;;;;;;4.73;91.30;100158.38;4849366;29;20113;-78
2022/01/06 11:29:42;;;;;;;17.10;7.95;;;;;;;4.78;91.30;100163.38;4849323;29;20062;-78
2022/01/06 11:32:19;;;;;;;14.57;8.25;;;;;;;4.77;91.48;100153.72;4848284;29;20536;-78
2022/01/06 11:34:45;;;;;;;19.98;8.88;;;;;;;4.80;91.57;100164.13;4847177;29;20042;-78
2022/01/06 11:37:12;;;;;;;15.98;9.02;;;;;;;4.79;91.62;100165.09;4833622;29;20036;-78
2022/01/06 11:39:37;;;;;;;15.05;8.25;;;;;;;4.73;91.36;100161.03;4848065;29;20042;-78